Tiempo atmosférico en la estación meteorológica de Rivilla De Barajas, Ávila (925 m.)



Fecha
DESCASC
Temp. máxima en grados centígrados (hora)
DESCASC
Temp. mínima en grados centígrados (hora)
DESCASC
Temp. media en grados centígrados
DESCASC
Racha de viento máxima en m/sg (hora)
DESCASC
Velocidad máxima media en intervalos de 10 minutos(hora)
DESCASC
Precipitaciones diarias en mm
DESCASC
Precipitaciones de 00:00 a 06:00 en mm
DESCASC
Precipitaciones de 06:00 a 12:00 en mm
DESCASC
Precipitaciones de 12:00 a 18:00 en mm
DESCASC
Precipitaciones de 18:00 a 24:00 en mm
DESCASC
25-04-2019 9.6 (16:20) 2.8 (11:10) 6.2 19.17 (00:20) 11.67 (19:50) 8 2 4.4 1.2 0.4
24-04-2019 14.2 (16:30) 1.7 (02:10) 7.9 21.11 (18:00) 13.61 (18:10) 9.2 0 2 0.6 6.6
23-04-2019 11.7 (00:00) 2.5 (22:50) 7.1 16.11 (16:50) 12.22 (16:40) 1.6 0 1 0 0.6
22-04-2019 16.5 (18:40) 3.4 (00:00) 10 10.56 (16:10) 6.11 (23:40) 0 0 0 0 0
21-04-2019 13.6 (16:50) 3.9 (00:00) 8.8 11.39 (12:30) 7.5 (16:20) 0 0 0 0 0
20-04-2019 19.9 (17:10) 6.8 (00:00) 13.3 13.33 (16:20) 9.17 (17:30) 0 0 0 0 0
19-04-2019 13.2 (17:20) 6.5 (00:00) 9.8 11.39 (17:20) 6.94 (16:20) 1 0.8 0 0.2 0
18-04-2019 10.3 (13:40) 5.3 (00:00) 7.8 7.22 (15:20) 5 (20:10) 2.6 0 0 1.6 1
17-04-2019 18.8 (13:50) 8 (00:00) 13.4 18.89 (21:00) 11.11 (21:00) 0 0 0 0 0
16-04-2019 19.7 (16:20) 1.9 (00:00) 10.8 10.56 (16:30) 6.11 (16:30) 0.2 0 0.2 0 0
15-04-2019 19.8 (15:20) 7 (00:00) 13.4 17.78 (17:20) 13.61 (17:20) 2 0 0 0 2
14-04-2019 18.4 (16:10) 9.3 (00:00) 13.8 7.22 (12:00) 5 (12:00) 0 0 0 0 0
13-04-2019 18.1 (18:50) 4.2 (00:00) 11.2 6.67 (18:10) 4.44 (18:10) 0 0 0 0 0
12-04-2019 13.9 (18:00) 0.2 (00:00) 7 7.22 (18:00) 3.89 (18:10) 0 0 0 0 0
11-04-2019 11.9 (18:20) 2.3 (00:00) 7.1 6.94 (18:30) 4.17 (19:50) 0 0 0 0 0
10-04-2019 9.1 (15:10) 3.4 (00:00) 6.3 11.94 (15:30) 9.72 (15:30) 7.8 0 0 6.6 1.2
09-04-2019 10.1 (17:10) 3.1 (00:00) 6.6 17.5 (17:50) 13.61 (18:00) 2.4 0 1 1.4 0
08-04-2019 12.3 (16:50) 4.1 (00:00) 8.2 11.39 (19:40) 8.61 (19:40) 4.8 0.2 0.8 0 3.8
07-04-2019 9.5 (14:30) 1.9 (00:00) 5.7 12.78 (03:30) 8.33 (03:30) 2 0.2 0 0.6 1.2
06-04-2019 7.3 (15:00) 1.4 (00:00) 4.4 20 (15:00) 13.89 (15:00) 3 0 0.2 1.8 1
05-04-2019 5.6 (19:20) 0.5 (00:00) 3 12.5 (18:50) 8.89 (15:50) 4 0 1.8 1.4 0.8
04-04-2019 11.8 (17:00) -3 (-00:0) 4.4 10.83 (22:10) 7.5 (19:30) 0 0 0 0 0
03-04-2019 9.7 (16:00) 2 (00:00) 5.8 13.33 (16:30) 8.61 (20:00) 0 0 0 0 0
02-04-2019 16.6 (16:40) 7.3 (00:00) 12 12.22 (17:40) 8.33 (19:00) 0 0 0 0 0
01-04-2019 16 (17:30) 2.1 (00:00) 9 6.94 (17:40) 4.17 (22:50) 0.2 0 0.2 0 0
31-03-2019 16.1 (14:00) 3.5 (00:00) 9.8 9.72 (15:50) 6.39 (15:40) 0 0 0 0 0
30-03-2019 17 (14:50) 1.9 (00:00) 9.4 7.78 (02:10) 4.44 (02:20) 0 0 0 0 0
29-03-2019 16.8 (15:30) 4.4 (00:00) 10.6 11.11 (15:20) 6.67 (12:00) 0 0 0 0 0
28-03-2019 17.7 (16:00) 0.5 (00:00) 9.1 7.22 (16:10) 4.17 (17:30) 0 0 0 0 0
27-03-2019 16.9 (17:20) -1.9 (-00:0) 7.5 7.5 (15:50) 4.72 (19:50) 0 0 0 0 0

Gráficas

Temp. máximas Temp. mínimas Temp. medias Precipitaciones Rachas de viento máximas Velocidades máximas media en intervalos de 10 minutos

Datos horarios

Fecha y hora oficial Temperatura (ºC) Velocidad del viento (km/h) Dirección del viento Racha (km/h) Dirección de racha Precipitación (mm) Presión (hPa) Tendencia (hPa) Humedad (%)
2019-04-25 23:00:00 5.7 26 Oeste 46 Oeste 0 -- -- 83
2019-04-25 22:00:00 5.2 31 Oeste 53 Oeste 0 -- -- 85
2019-04-25 21:00:00 6.3 33 Oeste 52 Oeste 0 -- -- 79
2019-04-25 20:00:00 6.5 39 Oeste 58 Oeste 0.2 -- -- 83
2019-04-25 19:00:00 7.6 21 Oeste 50 Sudoeste 0.2 -- -- 86
2019-04-25 18:00:00 7 23 Oeste 53 Oeste 0 -- -- 86
2019-04-25 17:00:00 7.7 21 Sudoeste 58 Sudoeste 0 -- -- 78
2019-04-25 16:00:00 9.2 28 Oeste 49 Sudoeste 0.2 -- -- 73
2019-04-25 15:00:00 6.5 26 Oeste 49 Sudoeste 1 -- -- 87
2019-04-25 14:00:00 7.9 23 Oeste 42 Sudoeste 0 -- -- 74
2019-04-25 13:00:00 7.3 23 Oeste 42 Sudoeste 0 -- -- 84
2019-04-25 12:00:00 3.4 17 Oeste 34 Oeste 1.4 -- -- 98
2019-04-25 11:00:00 2.9 33 Oeste 44 Sudoeste 1.2 -- -- 93
2019-04-25 10:00:00 3.9 17 Oeste 37 Sudoeste 0.4 -- -- 91
2019-04-25 09:00:00 3.7 21 Oeste 51 Oeste 0.6 -- -- 89
2019-04-25 08:00:00 4 17 Oeste 38 Sudoeste 0.2 -- -- 94
2019-04-25 07:00:00 4 21 Sudoeste 35 Oeste 0.6 -- -- 94
2019-04-25 06:00:00 4.1 18 Sudoeste 51 Sudoeste 0.2 -- -- 92
2019-04-25 05:00:00 4.8 28 Sudoeste 46 Sudoeste 0 -- -- 88
2019-04-25 04:00:00 5.1 23 Oeste 47 Oeste 0 -- -- 88
2019-04-25 03:00:00 5.2 26 Oeste 49 Sudoeste 0 -- -- 88
2019-04-25 02:00:00 6 26 Sudoeste 48 Oeste 0 -- -- 90
2019-04-25 01:00:00 6.6 24 Oeste 69 Oeste 1.8 -- -- 94
2019-04-25 00:00:00 7.2 23 Oeste 45 Noroeste 2.6 -- -- 96
2019-04-24 23:00:00 7.6 14 Oeste 34 Oeste 2.8 -- -- 95
2019-04-24 22:00:00 7.9 18 Sudoeste 48 Oeste 0 -- -- 89
2019-04-24 21:00:00 8 34 Sudoeste 69 Oeste 0 -- -- 88
2019-04-24 20:00:00 8.2 23 Sudoeste 50 Oeste 0.4 -- -- 89
2019-04-24 19:00:00 8 26 Sudoeste 75 Sudoeste 0.8 -- -- 90
2019-04-24 18:00:00 9.9 44 Sudoeste 76 Oeste 0.6 -- -- 81
2019-04-24 17:00:00 13 34 Sudoeste 61 Sudoeste 0 -- -- 63
2019-04-24 16:00:00 13.3 37 Sudoeste 64 Oeste 0 -- -- 66
2019-04-24 15:00:00 13.5 41 Oeste 67 Oeste 0 -- -- 64
2019-04-24 14:00:00 12.2 27 Sudoeste 55 Oeste 0 -- -- 64
2019-04-24 13:00:00 10.9 35 Sudoeste 62 Sudoeste 0 -- -- 70
2019-04-24 12:00:00 10 30 Sudoeste 54 Sudoeste 0 -- -- 74
2019-04-24 11:00:00 7.5 28 Sudoeste 53 Sudoeste 0.2 -- -- 79
2019-04-24 10:00:00 4.5 8 Sur 26 Sudoeste 0.6 -- -- 90
2019-04-24 09:00:00 3.6 0 Calma 19 Sudeste 0.6 -- -- 91
2019-04-24 08:00:00 3 10 Sudeste 17 Sudeste 0.6 -- -- 92
2019-04-24 07:00:00 3.1 3 Sur 13 Sudoeste 0 -- -- 87
2019-04-24 06:00:00 3.1 8 Sudoeste 17 Sudoeste 0 -- -- 86
2019-04-24 05:00:00 2.5 5 Sudoeste 14 Sudoeste 0 -- -- 91
2019-04-24 04:00:00 2.3 6 Sudoeste 22 Sudoeste 0 -- -- 93
2019-04-24 03:00:00 2 17 Sudoeste 28 Sudoeste 0 -- -- 95
2019-04-24 02:00:00 1.9 17 Oeste 31 Oeste 0 -- -- 93
2019-04-24 01:00:00 2 10 Sudoeste 22 Sudoeste 0 -- -- 90
2019-04-24 00:00:00 2.7 14 Sudoeste 28 Sudoeste 0 -- -- 91
2019-04-23 23:00:00 2.6 16 Sudoeste 28 Sudoeste 0 -- -- 92
2019-04-23 22:00:00 3.1 21 Sudoeste 33 Oeste 0 -- -- 91
2019-04-23 21:00:00 2.9 12 Sudoeste 33 Oeste 0.4 -- -- 94
2019-04-23 20:00:00 2.9 19 Sudoeste 46 Oeste 0.2 -- -- 94
2019-04-23 19:00:00 3.6 33 Oeste 56 Oeste 0 -- -- 87
2019-04-23 18:00:00 7.7 26 Sudoeste 47 Oeste 0 -- -- 68
2019-04-23 17:00:00 6.9 35 Oeste 58 Oeste 0 -- -- 72
2019-04-23 16:00:00 10.3 29 Oeste 46 Oeste 0 -- -- 55
2019-04-23 15:00:00 10.7 19 Oeste 37 Oeste 0 -- -- 50
2019-04-23 14:00:00 10.1 21 Oeste 37 Oeste 0 -- -- 53
2019-04-23 13:00:00 8.8 21 Sudoeste 40 Oeste 0 -- -- 64
2019-04-23 12:00:00 6.3 24 Oeste 37 Oeste 0 -- -- 81
2019-04-23 11:00:00 4.9 23 Oeste 31 Oeste 0 -- -- 89
2019-04-23 10:00:00 4.5 25 Oeste 37 Oeste 0 -- -- 87
2019-04-23 09:00:00 5.3 15 Oeste 36 Oeste 0 -- -- 91
2019-04-23 08:00:00 5.2 15 Sudoeste 33 Oeste 0.4 -- -- 94
2019-04-23 07:00:00 5.3 23 Oeste 36 Oeste 0.6 -- -- 94
2019-04-23 06:00:00 5.3 18 Oeste 27 Oeste 0 -- -- 93
2019-04-23 05:00:00 8.5 12 Oeste 22 Oeste 0 -- -- 87
2019-04-23 04:00:00 9.8 10 Sudoeste 19 Sudoeste 0 -- -- 74
2019-04-23 03:00:00 9.9 7 Sudoeste 15 Sudoeste 0 -- -- 76
2019-04-23 02:00:00 10 6 Sudoeste 15 Sudoeste 0 -- -- 83
2019-04-23 01:00:00 10.2 13 Oeste 33 Sudoeste 0 -- -- 83
2019-04-23 00:00:00 11.7 21 Oeste 35 Sudoeste 0 -- -- 70
2019-04-22 23:00:00 12.1 10 Sudoeste 19 Sudoeste 0 -- -- 62
2019-04-22 22:00:00 12.2 11 Sudoeste 22 Oeste 0 -- -- 57
2019-04-22 21:00:00 13 15 Oeste 28 Oeste 0 -- -- 51
2019-04-22 20:00:00 14.3 18 Oeste 33 Sudoeste 0 -- -- 49
2019-04-22 19:00:00 15.8 17 Oeste 31 Sudoeste 0 -- -- 47
2019-04-22 18:00:00 16.1 14 Oeste 33 Oeste 0 -- -- 48
2019-04-22 17:00:00 15.9 13 Oeste 38 Oeste 0 -- -- 47
2019-04-22 16:00:00 16 7 Oeste 20 Noroeste 0 -- -- 45
2019-04-22 15:00:00 14.4 12 Noroeste 27 Noroeste 0 -- -- 47
2019-04-22 14:00:00 13.7 6 Nordeste 17 Oeste 0 -- -- 52
2019-04-22 13:00:00 13.2 4 Oeste 16 Oeste 0 -- -- 57
2019-04-22 12:00:00 11.8 6 Oeste 17 Oeste 0 -- -- 60
2019-04-22 11:00:00 10.4 9 Oeste 14 Oeste 0 -- -- 67
2019-04-22 10:00:00 8.8 10 Oeste 15 Oeste 0 -- -- 77
2019-04-22 09:00:00 6.3 8 Oeste 15 Sudoeste 0 -- -- 89
2019-04-22 08:00:00 4.2 5 Sudoeste 10 Oeste 0 -- -- 93
2019-04-22 07:00:00 3.5 6 Oeste 8 Oeste 0 -- -- 91
2019-04-22 06:00:00 5.3 2 Oeste 5 Oeste 0 -- -- 88
2019-04-22 05:00:00 6.4 0 Calma 2 Oeste 0 -- -- 83
2019-04-22 04:00:00 6.8 0 Calma 4 Nordeste 0 -- -- 81
2019-04-22 03:00:00 7.1 2 Norte 4 Norte 0 -- -- 80
2019-04-22 02:00:00 7.3 0 Calma 4 Este 0 -- -- 78
2019-04-22 01:00:00 7.6 2 Nordeste 5 Nordeste 0 -- -- 76
2019-04-22 00:00:00 7.9 4 Nordeste 6 Nordeste 0 -- -- 74
2019-04-21 23:00:00 7.9 4 Nordeste 9 Este 0 -- -- 73
2019-04-21 22:00:00 8.4 4 Este 21 Este 0 -- -- 71
2019-04-21 21:00:00 10.4 14 Este 24 Este 0 -- -- 62
2019-04-21 20:00:00 11.3 19 Este 26 Nordeste 0 -- -- 59
2019-04-21 19:00:00 11.5 16 Nordeste 30 Este 0 -- -- 59
2019-04-21 18:00:00 11.7 23 Este 36 Este 0 -- -- 61
2019-04-21 17:00:00 13.2 23 Nordeste 39 Nordeste 0 -- -- 52
2019-04-21 16:00:00 13.3 18 Nordeste 32 Nordeste 0 -- -- 52
2019-04-21 15:00:00 12.5 20 Nordeste 37 Nordeste 0 -- -- 55
2019-04-21 14:00:00 13 22 Nordeste 39 Nordeste 0 -- -- 54
2019-04-21 13:00:00 11.9 26 Nordeste 41 Este 0 -- -- 59
2019-04-21 12:00:00 10.8 24 Este 36 Este 0 -- -- 65
2019-04-21 11:00:00 8.4 17 Nordeste 25 Este 0 -- -- 79
2019-04-21 10:00:00 8.2 19 Este 26 Este 0 -- -- 76
2019-04-21 09:00:00 6.2 6 Nordeste 14 Nordeste 0 -- -- 86
2019-04-21 08:00:00 5.8 7 Nordeste 15 Nordeste 0 -- -- 87
2019-04-21 07:00:00 5.3 5 Este 10 Este 0 -- -- 92
2019-04-21 06:00:00 4 5 Nordeste 10 Norte 0 -- -- 89
2019-04-21 05:00:00 6 4 Sudeste 15 Sudeste 0 -- -- 85
2019-04-21 04:00:00 7.3 6 Sudeste 23 Sur 0 -- -- 79
2019-04-21 03:00:00 8.3 11 Sur 23 Sur 0 -- -- 75
2019-04-21 02:00:00 8.1 14 Sudeste 23 Sudeste 0 -- -- 81
2019-04-21 01:00:00 8.8 9 Este 14 Este 0 -- -- 73
2019-04-21 00:00:00 10.4 8 Este 14 Este 0 -- -- 68
2019-04-20 23:00:00 12 4 Sudeste 20 Sur 0 -- -- 60
2019-04-20 22:00:00 14.2 10 Sur 23 Sudeste 0 -- -- 55
2019-04-20 21:00:00 16.1 14 Nordeste 31 Nordeste 0 -- -- 45
2019-04-20 20:00:00 17.8 24 Nordeste 37 Nordeste 0 -- -- 40
2019-04-20 19:00:00 18.8 27 Nordeste 41 Nordeste 0 -- -- 37
2019-04-20 18:00:00 19.3 30 Nordeste 46 Nordeste 0 -- -- 36
2019-04-20 17:00:00 19.6 30 Este 48 Este 0 -- -- 35
2019-04-20 16:00:00 19.6 27 Este 46 Nordeste 0 -- -- 34
2019-04-20 15:00:00 18.6 31 Nordeste 44 Nordeste 0 -- -- 36
2019-04-20 14:00:00 17.9 24 Este 35 Nordeste 0 -- -- 45
2019-04-20 13:00:00 16.9 23 Este 33 Este 0 -- -- 47
2019-04-20 12:00:00 13.9 17 Este 25 Este 0 -- -- 62
2019-04-20 11:00:00 12.2 17 Este 26 Nordeste 0 -- -- 67
2019-04-20 10:00:00 9.6 16 Este 22 Este 0 -- -- 77
2019-04-20 09:00:00 8.2 17 Nordeste 22 Nordeste 0 -- -- 79
2019-04-20 08:00:00 7.9 11 Este 25 Este 0 -- -- 81
2019-04-20 07:00:00 8.7 13 Este 24 Este 0 -- -- 75
2019-04-20 06:00:00 8.4 12 Nordeste 31 Este 0 -- -- 76
2019-04-20 05:00:00 7.1 6 Nordeste 12 Este 0 -- -- 84
2019-04-20 04:00:00 7.3 4 Sudeste 10 Nordeste 0 -- -- 84
2019-04-20 03:00:00 8.1 7 Este 21 Nordeste 0 -- -- 81
2019-04-20 02:00:00 9.2 9 Norte 36 Este 0 -- -- 77
2019-04-20 01:00:00 10.6 25 Este 34 Este 0 -- -- 67
2019-04-20 00:00:00 9.1 10 Este 14 Este 0 -- -- 96
2019-04-19 23:00:00 9.1 4 Este 9 Sudeste 0 -- -- 96
2019-04-19 22:00:00 9 3 Sudeste 10 Sudeste 0 -- -- 96
2019-04-19 21:00:00 9.1 7 Este 25 Este 0 -- -- 96
2019-04-19 20:00:00 9.6 19 Este 31 Este 0 -- -- 91
2019-04-19 19:00:00 10.2 21 Este 33 Este 0 -- -- 85
2019-04-19 18:00:00 12.5 20 Este 41 Este 0 -- -- 67
2019-04-19 17:00:00 12.5 21 Este 35 Este 0 -- -- 66
2019-04-19 16:00:00 11.9 22 Este 33 Este 0 -- -- 63
2019-04-19 15:00:00 11.7 18 Este 29 Este 0 -- -- 72
2019-04-19 14:00:00 10.8 15 Este 25 Este 0 -- -- 74
2019-04-19 13:00:00 10.7 18 Este 33 Este 0.2 -- -- 80
2019-04-19 12:00:00 10.4 18 Este 28 Este 0 -- -- 82
2019-04-19 11:00:00 9.2 18 Este 23 Este 0 -- -- 88
2019-04-19 10:00:00 8.4 13 Este 22 Este 0 -- -- 96
2019-04-19 09:00:00 7.2 9 Sudeste 13 Sudeste 0 -- -- 98
2019-04-19 08:00:00 6.6 9 Sudeste 13 Sudeste 0 -- -- 98
2019-04-19 07:00:00 6.9 8 Sudeste 12 Este 0 -- -- 98
2019-04-19 06:00:00 7 6 Sudeste 8 Sudeste 0 -- -- 98
2019-04-19 05:00:00 7.2 3 Sur 6 Sudoeste 0.2 -- -- 98
2019-04-19 04:00:00 7.3 3 Sudoeste 8 Oeste 0.2 -- -- 98
2019-04-19 03:00:00 7.3 3 Sudoeste 9 Oeste 0 -- -- 98
2019-04-19 02:00:00 7.3 7 Oeste 9 Oeste 0 -- -- 98
2019-04-19 01:00:00 7.5 4 Oeste 6 Noroeste 0.4 -- -- 97
2019-04-19 00:00:00 7.7 5 Noroeste 9 Norte 0 -- -- 95
2019-04-18 23:00:00 8 6 Norte 8 Norte 0 -- -- 93
2019-04-18 22:00:00 8.2 2 Nordeste 5 Nordeste 0 -- -- 89
2019-04-18 21:00:00 8.4 3 Sudeste 25 Este 0 -- -- 88
2019-04-18 20:00:00 9.7 18 Nordeste 24 Este 0 -- -- 84
2019-04-18 19:00:00 9.3 4 Sur 6 Sudeste 1 -- -- 90
2019-04-18 18:00:00 8.7 3 Noroeste 17 Oeste 1.2 -- -- 93
2019-04-18 17:00:00 8.8 9 Oeste 13 Sudoeste 0.4 -- -- 87
2019-04-18 16:00:00 9.2 5 Sudoeste 26 Nordeste 0 -- -- 83
2019-04-18 15:00:00 10.2 12 Norte 17 Noroeste 0 -- -- 76
2019-04-18 14:00:00 10 13 Nordeste 21 Nordeste 0 -- -- 77
2019-04-18 13:00:00 9.9 9 Nordeste 17 Nordeste 0 -- -- 78
2019-04-18 12:00:00 9.3 6 Nordeste 11 Nordeste 0 -- -- 81
2019-04-18 11:00:00 9 2 Noroeste 8 Este 0 -- -- 85
2019-04-18 10:00:00 7.6 4 Sudeste 10 Sudeste 0 -- -- 94
2019-04-18 09:00:00 7.1 3 Oeste 9 Sur 0 -- -- 95
2019-04-18 08:00:00 6.6 4 Sur 9 Sudoeste 0 -- -- 96
2019-04-18 07:00:00 6.4 3 Oeste 11 Oeste 0 -- -- 97
2019-04-18 06:00:00 6.2 6 Sudoeste 14 Sudoeste 0 -- -- 95
2019-04-18 05:00:00 6.5 9 Oeste 13 Oeste 0 -- -- 96
2019-04-18 04:00:00 7.2 9 Oeste 13 Noroeste 0 -- -- 94
2019-04-18 03:00:00 8.1 7 Oeste 13 Oeste 0 -- -- 88
2019-04-18 02:00:00 8.9 4 Sur 19 Sur 0 -- -- 83
2019-04-18 01:00:00 8.5 6 Sudoeste 22 Oeste 0 -- -- 92
2019-04-18 00:00:00 8 9 Oeste 28 Oeste 0 -- -- 92
2019-04-17 23:00:00 8.8 18 Oeste 35 Sudoeste 0 -- -- 86
2019-04-17 22:00:00 14.3 25 Sudoeste 66 Sudoeste 0 -- -- 55
2019-04-17 21:00:00 14.3 40 Sur 68 Sur 0 -- -- 58
2019-04-17 20:00:00 15.7 34 Sur 57 Sur 0 -- -- 51
2019-04-17 19:00:00 16.4 27 Sur 62 Sur 0 -- -- 47
2019-04-17 18:00:00 17.3 23 Sur 46 Sur 0 -- -- 44
2019-04-17 17:00:00 18.2 18 Sudoeste 43 Sur 0 -- -- 41
2019-04-17 16:00:00 18.3 22 Sur 56 Sur 0 -- -- 38
2019-04-17 15:00:00 17.4 32 Sur 60 Sur 0 -- -- 37
2019-04-17 14:00:00 18.6 28 Sur 56 Sur 0 -- -- 35
2019-04-17 13:00:00 18.2 29 Sur 55 Sur 0 -- -- 35
2019-04-17 12:00:00 17.3 25 Sur 47 Sur 0 -- -- 38
2019-04-17 11:00:00 15 32 Sudeste 48 Sudeste 0 -- -- 57
2019-04-17 10:00:00 11.3 31 Sudeste 47 Sudeste 0 -- -- 74
2019-04-17 09:00:00 10.5 17 Sudeste 41 Sudeste 0 -- -- 73
2019-04-17 08:00:00 11.9 14 Sur 28 Sur 0 -- -- 66
2019-04-17 07:00:00 12.8 19 Sudeste 34 Sudeste 0 -- -- 59
2019-04-17 06:00:00 13.9 12 Sur 31 Sur 0 -- -- 49
2019-04-17 05:00:00 14.1 15 Sur 28 Sur 0 -- -- 43
2019-04-17 04:00:00 13.8 15 Sur 28 Sur 0 -- -- 44
2019-04-17 03:00:00 12.5 19 Sudeste 36 Sudeste 0 -- -- 57
2019-04-17 02:00:00 11.5 9 Sudeste 17 Sudeste 0 -- -- 52
2019-04-17 01:00:00 11 5 Sur 14 Sudeste 0 -- -- 51
2019-04-17 00:00:00 10.8 5 Sur 13 Sudeste 0 -- -- 55
2019-04-16 23:00:00 11.6 4 Sur 8 Sur 0 -- -- 55
2019-04-16 22:00:00 13.1 4 Sudoeste 16 Sudoeste 0 -- -- 61
2019-04-16 21:00:00 15.6 6 Sudoeste 22 Sur 0 -- -- 47
2019-04-16 20:00:00 18.2 9 Sur 23 Sur 0 -- -- 32
2019-04-16 19:00:00 19.2 10 Sur 21 Sudoeste 0 -- -- 32
2019-04-16 18:00:00 19.2 9 Oeste 24 Oeste 0 -- -- 41
2019-04-16 17:00:00 19.1 18 Oeste 38 Sudoeste 0 -- -- 38
2019-04-16 16:00:00 19.1 17 Sudeste 37 Sudeste 0 -- -- 41
2019-04-16 15:00:00 18.5 16 Este 27 Sudeste 0 -- -- 38
2019-04-16 14:00:00 17.4 9 Sudeste 27 Este 0 -- -- 37
2019-04-16 13:00:00 14.7 13 Este 23 Este 0 -- -- 54
2019-04-16 12:00:00 12.2 13 Este 20 Sudeste 0 -- -- 70
2019-04-16 11:00:00 10.2 15 Este 21 Este 0 -- -- 81
2019-04-16 10:00:00 8.5 12 Este 15 Sudeste 0 -- -- 90
2019-04-16 09:00:00 5.3 4 Sudeste 11 Sudeste 0 -- -- 98
2019-04-16 08:00:00 1.9 8 Este 11 Este 0.2 -- -- 96
2019-04-16 07:00:00 3.6 3 Sudoeste 8 Sur 0 -- -- 96
2019-04-16 06:00:00 4.6 5 Sudoeste 10 Sudoeste 0 -- -- 96
2019-04-16 05:00:00 5.3 6 Sudoeste 12 Sudoeste 0 -- -- 96
2019-04-16 04:00:00 5.1 9 Sudoeste 14 Oeste 0 -- -- 96
2019-04-16 03:00:00 5.5 9 Sudoeste 15 Sudoeste 0 -- -- 95
2019-04-16 02:00:00 6.3 11 Oeste 19 Sudoeste 0 -- -- 93
2019-04-16 01:00:00 7.1 11 Oeste 16 Sudoeste 0 -- -- 93
2019-04-16 00:00:00 7.3 8 Oeste 14 Sudoeste 0 -- -- 93
2019-04-15 23:00:00 7.4 10 Oeste 17 Noroeste 0.6 -- -- 89
2019-04-15 22:00:00 8 20 Noroeste 33 Norte 1.4 -- -- 86
2019-04-15 21:00:00 9 11 Oeste 20 Oeste 0 -- -- 86
2019-04-15 20:00:00 9.8 13 Sudoeste 28 Oeste 0 -- -- 87
2019-04-15 19:00:00 9.1 21 Oeste 57 Oeste 0 -- -- 86
2019-04-15 18:00:00 12.3 44 Oeste 64 Noroeste 0 -- -- 61
2019-04-15 17:00:00 16.4 42 Oeste 62 Oeste 0 -- -- 55
2019-04-15 16:00:00 18.3 39 Oeste 54 Oeste 0 -- -- 47
2019-04-15 15:00:00 18.8 28 Oeste 45 Oeste 0 -- -- 54
2019-04-15 14:00:00 19.1 31 Oeste 47 Oeste 0 -- -- 54
2019-04-15 13:00:00 18.9 15 Sudoeste 34 Sudoeste 0 -- -- 51
2019-04-15 12:00:00 18.8 17 Sur 32 Sur 0 -- -- 54
2019-04-15 11:00:00 15.1 9 Sudeste 18 Sur 0 -- -- 74
2019-04-15 10:00:00 13 4 Sudeste 10 Sudeste 0 -- -- 82
2019-04-15 09:00:00 12.2 10 Sudeste 15 Sudeste 0 -- -- 82
2019-04-15 08:00:00 12 4 Sudeste 12 Sur 0 -- -- 82
2019-04-15 07:00:00 12.2 6 Sudoeste 11 Sur 0 -- -- 83
2019-04-15 06:00:00 12.4 6 Sudoeste 15 Sudoeste 0 -- -- 83
2019-04-15 05:00:00 12.1 9 Sudoeste 17 Sudoeste 0 -- -- 82
2019-04-15 04:00:00 11.3 9 Sudoeste 12 Oeste 0 -- -- 84
2019-04-15 03:00:00 11.8 6 Sudoeste 12 Sudoeste 0 -- -- 82
2019-04-15 02:00:00 12.7 7 Sudoeste 11 Sudoeste 0 -- -- 79
2019-04-15 01:00:00 13.6 7 Sudoeste 14 Sur 0 -- -- 76
2019-04-15 00:00:00 12.1 5 Sudoeste 9 Sur 0 -- -- 79
2019-04-14 23:00:00 12.9 7 Sur 8 Sudoeste 0 -- -- 75
2019-04-14 22:00:00 14.1 5 Sur 6 Sur 0 -- -- 72
2019-04-14 21:00:00 16 4 Oeste 7 Noroeste 0 -- -- 66
2019-04-14 20:00:00 17.4 6 Noroeste 14 Noroeste 0 -- -- 57
2019-04-14 19:00:00 18.3 9 Noroeste 16 Oeste 0 -- -- 54
2019-04-14 18:00:00 17.6 11 Oeste 17 Oeste 0 -- -- 60
2019-04-14 17:00:00 17.7 10 Oeste 23 Oeste 0 -- -- 60
2019-04-14 16:00:00 18 14 Oeste 24 Noroeste 0 -- -- 57
2019-04-14 15:00:00 16.6 14 Oeste 23 Noroeste 0 -- -- 63
2019-04-14 14:00:00 15.8 14 Oeste 22 Oeste 0 -- -- 64
2019-04-14 13:00:00 14.9 14 Noroeste 25 Noroeste 0 -- -- 74
2019-04-14 12:00:00 14.4 18 Oeste 26 Oeste 0 -- -- 75
2019-04-14 11:00:00 13.3 14 Oeste 20 Oeste 0 -- -- 81
2019-04-14 10:00:00 11.9 5 Oeste 19 Oeste 0 -- -- 88
2019-04-14 09:00:00 10.7 9 Oeste 15 Oeste 0 -- -- 92
2019-04-14 08:00:00 10.1 8 Oeste 14 Sudoeste 0 -- -- 94
2019-04-14 07:00:00 10 10 Sudoeste 15 Sudoeste 0 -- -- 95
2019-04-14 06:00:00 10 9 Oeste 18 Sudoeste 0 -- -- 93
2019-04-14 05:00:00 9.3 8 Sudoeste 14 Sudoeste 0 -- -- 91
2019-04-14 04:00:00 9.6 7 Sudoeste 19 Sudoeste 0 -- -- 86
2019-04-14 03:00:00 10 12 Sudoeste 20 Oeste 0 -- -- 81
2019-04-14 02:00:00 10.1 10 Sudoeste 19 Sudoeste 0 -- -- 78
2019-04-14 01:00:00 11.1 12 Sudoeste 19 Sudoeste 0 -- -- 71
2019-04-14 00:00:00 12.3 11 Oeste 20 Oeste 0 -- -- 66
2019-04-13 23:00:00 12 13 Sudoeste 19 Oeste 0 -- -- 64
2019-04-13 22:00:00 12.4 13 Oeste 19 Oeste 0 -- -- 54
2019-04-13 21:00:00 15.1 7 Oeste 13 Oeste 0 -- -- 47
2019-04-13 20:00:00 16.8 7 Oeste 20 Oeste 0 -- -- 39
2019-04-13 19:00:00 18 11 Oeste 24 Oeste 0 -- -- 29
2019-04-13 18:00:00 17.9 12 Noroeste 22 Noroeste 0 -- -- 28
2019-04-13 17:00:00 17.7 3 Noroeste 16 Noroeste 0 -- -- 27
2019-04-13 16:00:00 16.9 5 Noroeste 13 Noroeste 0 -- -- 27
2019-04-13 15:00:00 16.3 5 Nordeste 13 Este 0 -- -- 31
2019-04-13 14:00:00 15.7 4 Nordeste 17 Este 0 -- -- 34
2019-04-13 13:00:00 14.5 4 Nordeste 16 Sudeste 0 -- -- 36
2019-04-13 12:00:00 13.7 5 Este 12 Este 0 -- -- 38
2019-04-13 11:00:00 13.1 3 Nordeste 8 Nordeste 0 -- -- 39
2019-04-13 10:00:00 12.4 3 Este 8 Sur 0 -- -- 46
2019-04-13 09:00:00 6.6 3 Sudoeste 9 Sudoeste 0 -- -- 77
2019-04-13 08:00:00 4.2 6 Sudoeste 8 Sudoeste 0 -- -- 71
2019-04-13 07:00:00 4.8 6 Sudoeste 7 Sudoeste 0 -- -- 66
2019-04-13 06:00:00 4.7 5 Sur 7 Sur 0 -- -- 66
2019-04-13 05:00:00 4.6 7 Sur 8 Sur 0 -- -- 68
2019-04-13 04:00:00 5.1 6 Sur 9 Sur 0 -- -- 63
2019-04-13 03:00:00 5.4 7 Sur 9 Sur 0 -- -- 64
2019-04-13 02:00:00 4.9 5 Sudoeste 6 Sudoeste 0 -- -- 67
2019-04-13 01:00:00 6.2 5 Sur 8 Sur 0 -- -- 63
2019-04-13 00:00:00 7.7 4 Sur 5 Sur 0 -- -- 56
2019-04-12 23:00:00 7.7 4 Sur 5 Sur 0 -- -- 62
2019-04-12 22:00:00 8.9 0 Calma 4 Noroeste 0 -- -- 60
2019-04-12 21:00:00 11.7 0 Calma 10 Norte 0 -- -- 50
2019-04-12 20:00:00 13.3 8 Norte 14 Norte 0 -- -- 43
2019-04-12 19:00:00 13.8 6 Noroeste 20 Norte 0 -- -- 43
2019-04-12 18:00:00 13.9 7 Noroeste 26 Norte 0 -- -- 47
2019-04-12 17:00:00 13.5 5 Norte 21 Nordeste 0 -- -- 48
2019-04-12 16:00:00 12.5 8 Norte 24 Norte 0 -- -- 52
2019-04-12 15:00:00 11.5 9 Norte 24 Norte 0 -- -- 52
2019-04-12 14:00:00 11.1 9 Noroeste 22 Norte 0 -- -- 60
2019-04-12 13:00:00 10.2 8 Norte 17 Norte 0 -- -- 61
2019-04-12 12:00:00 8.8 4 Norte 10 Norte 0 -- -- 69
2019-04-12 11:00:00 6.9 4 Nordeste 9 Nordeste 0 -- -- 83
2019-04-12 10:00:00 5.1 5 Este 8 Este 0 -- -- 89
2019-04-12 09:00:00 3.3 2 Sudeste 3 Sudeste 0 -- -- 94
2019-04-12 08:00:00 0.8 3 Sudeste 5 Sur 0 -- -- 96
2019-04-12 07:00:00 0.7 0 Calma 3 Nordeste 0 -- -- 94
2019-04-12 06:00:00 1.3 0 Calma 2 Sudoeste 0 -- -- 90
2019-04-12 05:00:00 1.4 0 Calma 2 Norte 0 -- -- 89
2019-04-12 04:00:00 1.7 0 Calma 3 Este 0 -- -- 87
2019-04-12 03:00:00 2 0 Calma 8 Norte 0 -- -- 85
2019-04-12 02:00:00 2.5 3 Sur 12 Este 0 -- -- 82
2019-04-12 01:00:00 3.6 6 Nordeste 15 Nordeste 0 -- -- 76
2019-04-12 00:00:00 5.6 6 Oeste 10 Oeste 0 -- -- 69
2019-04-11 23:00:00 6.7 0 Calma 5 Noroeste 0 -- -- 65
2019-04-11 22:00:00 7.4 3 Norte 9 Norte 0 -- -- 66
2019-04-11 21:00:00 9.4 4 Norte 14 Nordeste 0 -- -- 60
2019-04-11 20:00:00 10.8 13 Nordeste 19 Nordeste 0 -- -- 47
2019-04-11 19:00:00 10.5 8 Noroeste 25 Norte 0 -- -- 48
2019-04-11 18:00:00 11.5 9 Norte 17 Norte 0 -- -- 51
2019-04-11 17:00:00 10 12 Nordeste 23 Norte 0 -- -- 55
2019-04-11 16:00:00 10.2 8 Nordeste 19 Noroeste 0 -- -- 54
2019-04-11 15:00:00 10 7 Noroeste 19 Noroeste 0 -- -- 61
2019-04-11 14:00:00 9.1 7 Norte 16 Nordeste 0 -- -- 63
2019-04-11 13:00:00 9 6 Este 17 Nordeste 0 -- -- 68
2019-04-11 12:00:00 8.2 9 Este 24 Este 0 -- -- 70
2019-04-11 11:00:00 6.9 12 Este 21 Este 0 -- -- 80
2019-04-11 10:00:00 5.6 7 Este 10 Este 0 -- -- 87
2019-04-11 09:00:00 4 0 Calma 6 Sur 0 -- -- 93
2019-04-11 08:00:00 2.3 2 Sudeste 11 Este 0 -- -- 94
2019-04-11 07:00:00 2.7 8 Sudeste 9 Sudeste 0 -- -- 94
2019-04-11 06:00:00 3 2 Este 4 Nordeste 0 -- -- 96
2019-04-11 05:00:00 2.8 2 Nordeste 4 Nordeste 0 -- -- 95
2019-04-11 04:00:00 3.4 0 Calma 6 Norte 0 -- -- 94
2019-04-11 03:00:00 3 4 Oeste 8 Oeste 0 -- -- 94
2019-04-11 02:00:00 3.2 6 Oeste 10 Oeste 0 -- -- 94
2019-04-11 01:00:00 3.6 8 Oeste 17 Sudoeste 0 -- -- 92
2019-04-11 00:00:00 3.6 12 Sudoeste 21 Sudoeste 0 -- -- 93
2019-04-10 23:00:00 3.7 13 Sudoeste 21 Oeste 0 -- -- 92
2019-04-10 22:00:00 4.5 13 Oeste 26 Oeste 0 -- -- 92
2019-04-10 21:00:00 5.3 14 Oeste 28 Oeste 0.4 -- -- 91
2019-04-10 20:00:00 6.7 9 Oeste 20 Oeste 0.6 -- -- 88
2019-04-10 19:00:00 6.7 12 Oeste 21 Oeste 0.2 -- -- 90
2019-04-10 18:00:00 5.9 6 Sudoeste 17 Oeste 1.2 -- -- 93
2019-04-10 17:00:00 4.3 15 Noroeste 33 Noroeste 4.4 -- -- 87
2019-04-10 16:00:00 8.8 22 Noroeste 43 Oeste 0 -- -- 73
2019-04-10 15:00:00 8.2 27 Noroeste 39 Noroeste 1 -- -- 79
2019-04-10 14:00:00 8.8 27 Oeste 39 Noroeste 0 -- -- 72
2019-04-10 13:00:00 7.8 30 Noroeste 38 Oeste 0 -- -- 74
2019-04-10 12:00:00 6.7 26 Oeste 40 Oeste 0 -- -- 79
2019-04-10 11:00:00 5.3 26 Oeste 40 Oeste 0 -- -- 88
2019-04-10 10:00:00 4.9 22 Oeste 36 Oeste 0 -- -- 90
2019-04-10 09:00:00 4.1 21 Oeste 36 Oeste 0 -- -- 94
2019-04-10 08:00:00 3.9 23 Oeste 37 Oeste 0 -- -- 93
2019-04-10 07:00:00 4.1 22 Oeste 35 Oeste 0 -- -- 95
2019-04-10 06:00:00 4.4 21 Oeste 35 Oeste 0 -- -- 92
2019-04-10 05:00:00 4.3 18 Oeste 34 Oeste 0 -- -- 93
2019-04-10 04:00:00 4.4 22 Oeste 36 Oeste 0 -- -- 91
2019-04-10 03:00:00 4.1 20 Oeste 40 Oeste 0 -- -- 94
2019-04-10 02:00:00 4.2 21 Oeste 39 Sudoeste 0 -- -- 91
2019-04-10 01:00:00 5 24 Oeste 39 Oeste 0 -- -- 89
2019-04-10 00:00:00 5.1 27 Oeste 40 Oeste 0 -- -- 90
2019-04-09 23:00:00 5.5 26 Oeste 33 Oeste 0 -- -- 89
2019-04-09 22:00:00 5.3 22 Oeste 43 Oeste 0 -- -- 88
2019-04-09 21:00:00 7 19 Oeste 33 Oeste 0 -- -- 80
2019-04-09 20:00:00 8.2 29 Oeste 44 Oeste 0 -- -- 67
2019-04-09 19:00:00 9.1 29 Oeste 53 Oeste 0 -- -- 67
2019-04-09 18:00:00 8.4 49 Oeste 63 Oeste 0 -- -- 71
2019-04-09 17:00:00 10 34 Oeste 48 Oeste 0 -- -- 56
2019-04-09 16:00:00 9.9 38 Oeste 54 Oeste 0 -- -- 55
2019-04-09 15:00:00 8.5 35 Oeste 46 Oeste 0 -- -- 69
2019-04-09 14:00:00 5.8 27 Oeste 45 Oeste 0.2 -- -- 86
2019-04-09 13:00:00 3.8 30 Oeste 46 Oeste 1.2 -- -- 95
2019-04-09 12:00:00 4.6 35 Oeste 55 Oeste 1 -- -- 89
2019-04-09 11:00:00 6.6 26 Oeste 43 Oeste 0 -- -- 83
2019-04-09 10:00:00 5.4 24 Sudoeste 40 Sudoeste 0 -- -- 88
2019-04-09 09:00:00 4.6 16 Sudoeste 27 Sudoeste 0 -- -- 92
2019-04-09 08:00:00 4 8 Sudoeste 25 Sudoeste 0 -- -- 91
2019-04-09 07:00:00 3.3 15 Sudoeste 25 Sudoeste 0 -- -- 92
2019-04-09 06:00:00 3.2 13 Sudoeste 28 Oeste 0 -- -- 93
2019-04-09 05:00:00 3.4 12 Sudoeste 27 Sudoeste 0 -- -- 94
2019-04-09 04:00:00 3.4 13 Sudoeste 22 Sudoeste 0 -- -- 96
2019-04-09 03:00:00 3.9 8 Sudoeste 22 Oeste 0 -- -- 93
2019-04-09 02:00:00 3.9 14 Sudoeste 22 Sudoeste 0 -- -- 92
2019-04-09 01:00:00 3.4 9 Sudoeste 21 Oeste 0 -- -- 92
2019-04-09 00:00:00 4.5 13 Sudoeste 21 Oeste 0 -- -- 91
2019-04-08 23:00:00 4.2 7 Sudoeste 15 Sudoeste 0 -- -- 93
2019-04-08 22:00:00 4.9 8 Sudoeste 18 Sudoeste 0 -- -- 92
2019-04-08 21:00:00 5.3 10 Sudoeste 21 Sudoeste 0.8 -- -- 91
2019-04-08 20:00:00 5.2 15 Oeste 41 Noroeste 2.2 -- -- 92
2019-04-08 19:00:00 8.5 8 Sudoeste 31 Oeste 0.8 -- -- 75
2019-04-08 18:00:00 10.8 19 Oeste 33 Noroeste 0 -- -- 52
2019-04-08 17:00:00 12.2 26 Oeste 36 Oeste 0 -- -- 49
2019-04-08 16:00:00 11.7 20 Oeste 36 Oeste 0 -- -- 54
2019-04-08 15:00:00 10.8 18 Oeste 32 Noroeste 0 -- -- 67
2019-04-08 14:00:00 10.2 21 Noroeste 35 Oeste 0 -- -- 72
2019-04-08 13:00:00 10.5 22 Oeste 31 Oeste 0 -- -- 65
2019-04-08 12:00:00 9 17 Oeste 28 Oeste 0 -- -- 79
2019-04-08 11:00:00 7.4 19 Oeste 28 Oeste 0.2 -- -- 88
2019-04-08 10:00:00 6.5 18 Oeste 29 Oeste 0 -- -- 94
2019-04-08 09:00:00 6.2 18 Oeste 27 Oeste 0 -- -- 95
2019-04-08 08:00:00 6.6 17 Oeste 40 Oeste 0 -- -- 95
2019-04-08 07:00:00 7 23 Oeste 35 Oeste 0.6 -- -- 96
2019-04-08 06:00:00 7.4 10 Oeste 22 Oeste 0.2 -- -- 90
2019-04-08 05:00:00 7.7 15 Oeste 27 Oeste 0 -- -- 87
2019-04-08 04:00:00 7.7 17 Sudoeste 34 Sudoeste 0 -- -- 86
2019-04-08 03:00:00 7.4 15 Sudoeste 26 Sudoeste 0 -- -- 88
2019-04-08 02:00:00 7.2 10 Oeste 30 Sudoeste 0 -- -- 92
2019-04-08 01:00:00 7.4 16 Sudoeste 27 Sudoeste 0 -- -- 93
2019-04-08 00:00:00 7.2 12 Sudoeste 26 Sudoeste 0 -- -- 95
2019-04-07 23:00:00 7 13 Sudoeste 22 Sudoeste 0 -- -- 95
2019-04-07 22:00:00 5.9 4 Sur 7 Sur 0.2 -- -- 94
2019-04-07 21:00:00 6.1 3 Sudeste 11 Sudeste 0.4 -- -- 89
2019-04-07 20:00:00 6.5 5 Sur 10 Sur 0.2 -- -- 88
2019-04-07 19:00:00 6.2 6 Sudoeste 18 Sudoeste 0.4 -- -- 86
2019-04-07 18:00:00 7.1 11 Sudoeste 22 Sudoeste 0.2 -- -- 78
2019-04-07 17:00:00 7 14 Sudoeste 33 Oeste 0.4 -- -- 76
2019-04-07 16:00:00 8.6 21 Oeste 31 Oeste 0 -- -- 66
2019-04-07 15:00:00 9.1 21 Oeste 36 Oeste 0 -- -- 60
2019-04-07 14:00:00 8.9 18 Oeste 33 Oeste 0 -- -- 61
2019-04-07 13:00:00 8.5 21 Oeste 35 Oeste 0 -- -- 66
2019-04-07 12:00:00 7 20 Oeste 30 Oeste 0 -- -- 66
2019-04-07 11:00:00 4.8 19 Oeste 35 Oeste 0 -- -- 78
2019-04-07 10:00:00 3.7 26 Oeste 36 Oeste 0 -- -- 84
2019-04-07 09:00:00 2.9 23 Oeste 34 Oeste 0 -- -- 91
2019-04-07 08:00:00 2.3 13 Oeste 28 Oeste 0 -- -- 92
2019-04-07 07:00:00 2.1 19 Oeste 31 Oeste 0 -- -- 93
2019-04-07 06:00:00 2.4 20 Oeste 38 Oeste 0 -- -- 91
2019-04-07 05:00:00 2.5 21 Oeste 35 Oeste 0 -- -- 92
2019-04-07 04:00:00 2.7 23 Oeste 46 Oeste 0 -- -- 91
2019-04-07 03:00:00 2.6 26 Oeste 43 Oeste 0 -- -- 93
2019-04-07 02:00:00 2.5 21 Oeste 37 Oeste 0 -- -- 94
2019-04-07 01:00:00 2.5 23 Oeste 39 Sudoeste 0.2 -- -- 90
2019-04-07 00:00:00 3 21 Oeste 33 Oeste 0 -- -- 90
2019-04-06 23:00:00 2.4 21 Oeste 37 Oeste 0 -- -- 93
2019-04-06 22:00:00 2.8 23 Oeste 33 Oeste 1 -- -- 90
2019-04-06 21:00:00 3.7 25 Oeste 46 Oeste 0 -- -- 85
2019-04-06 20:00:00 4.9 33 Oeste 53 Oeste 0 -- -- 76
2019-04-06 19:00:00 6.2 37 Oeste 62 Oeste 0 -- -- 69
2019-04-06 18:00:00 6.1 39 Oeste 63 Oeste 0 -- -- 79
2019-04-06 17:00:00 4.7 33 Oeste 64 Oeste 1.6 -- -- 90
2019-04-06 16:00:00 4.9 27 Sudoeste 71 Oeste 0.2 -- -- 84
2019-04-06 15:00:00 7.3 50 Oeste 72 Oeste 0 -- -- 65
2019-04-06 14:00:00 6.6 41 Oeste 65 Sudoeste 0 -- -- 66
2019-04-06 13:00:00 6.3 38 Oeste 64 Oeste 0 -- -- 73
2019-04-06 12:00:00 4.8 36 Oeste 57 Sudoeste 0 -- -- 78
2019-04-06 11:00:00 3.8 29 Oeste 55 Sudoeste 0.2 -- -- 84
2019-04-06 10:00:00 3 28 Oeste 50 Oeste 0 -- -- 89
2019-04-06 09:00:00 2.2 19 Sudoeste 36 Sudoeste 0 -- -- 91
2019-04-06 08:00:00 1.5 11 Sudoeste 28 Oeste 0 -- -- 89
2019-04-06 07:00:00 1.7 19 Sudoeste 34 Oeste 0 -- -- 88
2019-04-06 06:00:00 1.5 18 Sudoeste 32 Oeste 0 -- -- 91
2019-04-06 05:00:00 1.4 19 Oeste 33 Sudoeste 0 -- -- 93
2019-04-06 04:00:00 1.4 20 Oeste 36 Oeste 0 -- -- 93
2019-04-06 03:00:00 1.7 21 Oeste 37 Sudoeste 0 -- -- 92
2019-04-06 02:00:00 1.7 18 Oeste 33 Sudoeste 0 -- -- 92
2019-04-06 01:00:00 2 17 Oeste 35 Oeste 0 -- -- 92
2019-04-06 00:00:00 1.9 19 Oeste 35 Oeste 0 -- -- 92
2019-04-05 23:00:00 2.2 17 Oeste 31 Sudoeste 0 -- -- 92
2019-04-05 22:00:00 1.5 13 Sudoeste 37 Sudoeste 0 -- -- 93
2019-04-05 21:00:00 2.4 21 Sudoeste 45 Sudoeste 0.2 -- -- 91
2019-04-05 20:00:00 4.8 11 Sudoeste 30 Oeste 0 -- -- 76
2019-04-05 19:00:00 5.2 19 Oeste 45 Oeste 0.6 -- -- 73
2019-04-05 18:00:00 5.5 19 Oeste 32 Sudoeste 0 -- -- 75
2019-04-05 17:00:00 2.9 14 Oeste 35 Oeste 0.2 -- -- 95
2019-04-05 16:00:00 1.7 26 Oeste 44 Oeste 0.4 -- -- 94
2019-04-05 15:00:00 4.8 8 Sudoeste 22 Oeste 0 -- -- 81
2019-04-05 14:00:00 4.2 9 Sudoeste 22 Oeste 0.2 -- -- 86
2019-04-05 13:00:00 2.3 10 Sudoeste 18 Sudoeste 0.6 -- -- 98
2019-04-05 12:00:00 0.8 9 Sudoeste 16 Sudoeste 0.8 -- -- 97
2019-04-05 11:00:00 1.4 14 Oeste 22 Oeste 0.2 -- -- 92
2019-04-05 10:00:00 2.1 10 Sudoeste 21 Oeste 0 -- -- 97
2019-04-05 09:00:00 0.8 8 Sudoeste 23 Noroeste 0.6 -- -- 96
2019-04-05 08:00:00 1.7 22 Noroeste 32 Noroeste 0.2 -- -- 89
2019-04-05 07:00:00 4 5 Sudoeste 13 Sudoeste 0 -- -- 82
2019-04-05 06:00:00 3.9 6 Sudoeste 20 Sudoeste 0 -- -- 83
2019-04-05 05:00:00 4.2 11 Sudoeste 24 Sudoeste 0 -- -- 82
2019-04-05 04:00:00 4.1 14 Sudoeste 28 Sudoeste 0 -- -- 83
2019-04-05 03:00:00 4.1 14 Sudoeste 26 Sudoeste 0 -- -- 81
2019-04-05 02:00:00 4 6 Sudoeste 13 Sudoeste 0 -- -- 81
2019-04-05 01:00:00 4 9 Sudoeste 21 Sudoeste 0 -- -- 79
2019-04-05 00:00:00 4.3 10 Sudoeste 31 Sudoeste 0 -- -- 74
2019-04-04 23:00:00 5.4 14 Sudoeste 39 Oeste 0 -- -- 61
2019-04-04 22:00:00 6.7 8 Sudoeste 37 Sudoeste 0 -- -- 50
2019-04-04 21:00:00 7.9 25 Oeste 36 Oeste 0 -- -- 40
2019-04-04 20:00:00 9 19 Oeste 38 Oeste 0 -- -- 31
2019-04-04 19:00:00 9.6 25 Oeste 36 Oeste 0 -- -- 32
2019-04-04 18:00:00 10.6 25 Oeste 37 Oeste 0 -- -- 30
2019-04-04 17:00:00 11.8 21 Oeste 35 Oeste 0 -- -- 28
2019-04-04 16:00:00 10.8 14 Oeste 31 Oeste 0 -- -- 27
2019-04-04 15:00:00 9.2 14 Oeste 26 Oeste 0 -- -- 33
2019-04-04 14:00:00 8.1 11 Oeste 21 Oeste 0 -- -- 35
2019-04-04 13:00:00 6.5 12 Oeste 22 Oeste 0 -- -- 43
2019-04-04 12:00:00 5 9 Oeste 19 Oeste 0 -- -- 49
2019-04-04 11:00:00 3.7 10 Oeste 21 Sudoeste 0 -- -- 56
2019-04-04 10:00:00 1.3 14 Oeste 23 Oeste 0 -- -- 72
2019-04-04 09:00:00 -1.2 12 Sudoeste 20 Sudoeste 0 -- -- 82
2019-04-04 08:00:00 -2.6 12 Sudoeste 18 Sudoeste 0 -- -- 83
2019-04-04 07:00:00 -2.7 10 Sudoeste 17 Sudoeste 0 -- -- 83
2019-04-04 06:00:00 -2.8 9 Sudoeste 16 Sudoeste 0 -- -- 82
2019-04-04 05:00:00 -2.5 10 Oeste 15 Sudoeste 0 -- -- 79
2019-04-04 04:00:00 -1.4 10 Sudoeste 13 Sudoeste 0 -- -- 75
2019-04-04 03:00:00 -0.9 9 Sudoeste 15 Sudoeste 0 -- -- 72
2019-04-04 02:00:00 -0.1 6 Oeste 10 Oeste 0 -- -- 68
2019-04-04 01:00:00 0.4 8 Oeste 12 Noroeste 0 -- -- 65
2019-04-04 00:00:00 2 9 Noroeste 22 Noroeste 0 -- -- 57
2019-04-03 23:00:00 3.9 19 Norte 33 Norte 0 -- -- 51
2019-04-03 22:00:00 5.9 20 Norte 35 Norte 0 -- -- 48
2019-04-03 21:00:00 7.1 17 Noroeste 37 Noroeste 0 -- -- 44
2019-04-03 20:00:00 8.8 31 Noroeste 39 Noroeste 0 -- -- 43
2019-04-03 19:00:00 9.7 19 Noroeste 26 Noroeste 0 -- -- 40
2019-04-03 18:00:00 9.1 15 Norte 35 Oeste 0 -- -- 43
2019-04-03 17:00:00 9.4 19 Noroeste 48 Noroeste 0 -- -- 42
2019-04-03 16:00:00 9.7 20 Noroeste 33 Noroeste 0 -- -- 42
2019-04-03 15:00:00 8.8 18 Norte 29 Noroeste 0 -- -- 45
2019-04-03 14:00:00 7.9 17 Noroeste 29 Noroeste 0 -- -- 53
2019-04-03 13:00:00 6.7 19 Noroeste 35 Noroeste 0 -- -- 61
2019-04-03 12:00:00 4.8 25 Noroeste 33 Noroeste 0 -- -- 71
2019-04-03 11:00:00 5.8 27 Oeste 33 Oeste 0 -- -- 67
2019-04-03 10:00:00 5.1 21 Noroeste 27 Noroeste 0 -- -- 74
2019-04-03 09:00:00 4.3 18 Oeste 25 Oeste 0 -- -- 88
2019-04-03 08:00:00 4.7 16 Oeste 24 Oeste 0 -- -- 88
2019-04-03 07:00:00 3.8 13 Oeste 19 Oeste 0 -- -- 88
2019-04-03 06:00:00 4.5 12 Oeste 18 Sudoeste 0 -- -- 80
2019-04-03 05:00:00 6.2 13 Oeste 19 Sudoeste 0 -- -- 71
2019-04-03 04:00:00 7 10 Oeste 16 Sudoeste 0 -- -- 65
2019-04-03 03:00:00 6.8 9 Sudoeste 16 Sudoeste 0 -- -- 61
2019-04-03 02:00:00 7 9 Sudoeste 18 Oeste 0 -- -- 54
2019-04-03 01:00:00 6.9 11 Sudoeste 22 Oeste 0 -- -- 51
2019-04-03 00:00:00 8.5 15 Oeste 22 Oeste 0 -- -- 45
2019-04-02 23:00:00 8.6 13 Oeste 18 Oeste 0 -- -- 43
2019-04-02 22:00:00 9.3 12 Oeste 22 Noroeste 0 -- -- 42
2019-04-02 21:00:00 11.7 18 Noroeste 32 Oeste 0 -- -- 37
2019-04-02 20:00:00 14.5 25 Noroeste 39 Oeste 0 -- -- 35
2019-04-02 19:00:00 15.7 30 Oeste 40 Noroeste 0 -- -- 32
2019-04-02 18:00:00 16.2 30 Oeste 44 Noroeste 0 -- -- 35
2019-04-02 17:00:00 15.8 24 Oeste 37 Oeste 0 -- -- 39
2019-04-02 16:00:00 15.5 22 Noroeste 35 Noroeste 0 -- -- 43
2019-04-02 15:00:00 15.5 21 Noroeste 34 Oeste 0 -- -- 41
2019-04-02 14:00:00 15 18 Oeste 29 Oeste 0 -- -- 42
2019-04-02 13:00:00 13.4 21 Oeste 29 Oeste 0 -- -- 54
2019-04-02 12:00:00 12.6 18 Oeste 28 Oeste 0 -- -- 59
2019-04-02 11:00:00 9.7 16 Oeste 25 Oeste 0 -- -- 80
2019-04-02 10:00:00 8.1 8 Sudoeste 14 Sudoeste 0 -- -- 88
2019-04-02 09:00:00 7.6 9 Sudoeste 17 Oeste 0 -- -- 89
2019-04-02 08:00:00 8.1 9 Sudoeste 16 Sudoeste 0 -- -- 78
2019-04-02 07:00:00 8 8 Sudoeste 13 Sudoeste 0 -- -- 77
2019-04-02 06:00:00 7.6 8 Sudoeste 12 Sudoeste 0 -- -- 78
2019-04-02 05:00:00 7.8 9 Oeste 16 Sudoeste 0 -- -- 77
2019-04-02 04:00:00 7.7 12 Sudoeste 18 Sudoeste 0 -- -- 77
2019-04-02 03:00:00 7.3 13 Sudoeste 19 Sudoeste 0 -- -- 78
2019-04-02 02:00:00 7.6 12 Sudoeste 16 Sudoeste 0 -- -- 76
2019-04-02 01:00:00 8.2 10 Sudoeste 20 Sudoeste 0 -- -- 73
2019-04-02 00:00:00 8.2 14 Oeste 21 Sudoeste 0 -- -- 72
2019-04-01 23:00:00 9.4 14 Oeste 24 Oeste 0 -- -- 67
2019-04-01 22:00:00 10.2 12 Oeste 19 Sudoeste 0 -- -- 62
2019-04-01 21:00:00 12.9 5 Norte 13 Norte 0 -- -- 39
2019-04-01 20:00:00 14.7 9 Norte 17 Nordeste 0 -- -- 35
2019-04-01 19:00:00 15.7 10 Norte 21 Norte 0 -- -- 34
2019-04-01 18:00:00 16 12 Norte 25 Norte 0 -- -- 31
2019-04-01 17:00:00 15.5 7 Nordeste 18 Noroeste 0 -- -- 35
2019-04-01 16:00:00 15.4 8 Norte 21 Nordeste 0 -- -- 39
2019-04-01 15:00:00 13.7 8 Nordeste 21 Nordeste 0 -- -- 45
2019-04-01 14:00:00 14.2 6 Sudeste 16 Nordeste 0 -- -- 50
2019-04-01 13:00:00 12.7 6 Este 16 Este 0 -- -- 60
2019-04-01 12:00:00 10.3 4 Norte 13 Nordeste 0.2 -- -- 70
2019-04-01 11:00:00 7.8 4 Norte 8 Norte 0 -- -- 80
2019-04-01 10:00:00 5.7 4 Norte 6 Noroeste 0 -- -- 86
2019-04-01 09:00:00 4.2 4 Oeste 10 Oeste 0 -- -- 91
2019-04-01 08:00:00 2.4 4 Sudoeste 9 Sudoeste 0 -- -- 91
2019-04-01 07:00:00 2.3 0 Calma 7 Sudeste 0 -- -- 92
2019-04-01 06:00:00 2.2 2 Oeste 14 Sudoeste 0 -- -- 90
2019-04-01 05:00:00 4 6 Sudoeste 12 Sudoeste 0 -- -- 90
2019-04-01 04:00:00 3.9 4 Sudoeste 9 Sudoeste 0 -- -- 87
2019-04-01 03:00:00 4.2 0 Calma 5 Sur 0 -- -- 86
2019-04-01 02:00:00 5.4 3 Sur 14 Sur 0 -- -- 81
2019-04-01 01:00:00 7.2 8 Sur 16 Sur 0 -- -- 78
2019-04-01 00:00:00 7.7 9 Sur 20 Sur 0 -- -- 76
2019-03-31 23:00:00 8.5 7 Sur 12 Sur 0 -- -- 74
2019-03-31 22:00:00 9.5 7 Sudeste 22 Sudeste 0 -- -- 71
2019-03-31 21:00:00 11.1 18 Sudeste 28 Sudeste 0 -- -- 62
2019-03-31 20:00:00 13.2 9 Sudeste 24 Este 0 -- -- 53
2019-03-31 19:00:00 14.9 6 Este 13 Sudoeste 0 -- -- 46
2019-03-31 18:00:00 13.9 9 Sudoeste 21 Sudoeste 0 -- -- 47
2019-03-31 17:00:00 14.6 11 Sudeste 27 Sudeste 0 -- -- 43
2019-03-31 16:00:00 13.1 18 Sudeste 35 Sudeste 0 -- -- 50
2019-03-31 15:00:00 14.9 8 Nordeste 19 Nordeste 0 -- -- 39
2019-03-31 14:00:00 16.1 12 Este 28 Oeste 0 -- -- 39
2019-03-31 13:00:00 15.3 15 Este 28 Sudeste 0 -- -- 38
2019-03-31 12:00:00 14.5 14 Sudeste 27 Sudeste 0 -- -- 44
2019-03-31 11:00:00 13.4 13 Sudeste 26 Sudeste 0 -- -- 50
2019-03-31 10:00:00 11.2 6 Sudeste 13 Sudeste 0 -- -- 60
2019-03-31 09:00:00 5.6 6 Sur 9 Sur 0 -- -- 77
2019-03-31 08:00:00 4.6 0 Calma 9 Sur 0 -- -- 72
2019-03-31 07:00:00 4.5 5 Sur 12 Sur 0 -- -- 68
2019-03-31 06:00:00 3.9 5 Sur 6 Sur 0 -- -- 61
2019-03-31 05:00:00 3.5 3 Norte 7 Noroeste 0 -- -- 61
2019-03-31 03:00:00 4.5 5 Sudeste 13 Sudeste 0 -- -- 58
2019-03-31 01:00:00 7.6 2 Sur 11 Sur 0 -- -- 48
2019-03-31 00:00:00 8.6 8 Sur 12 Sudoeste 0 -- -- 44
2019-03-30 23:00:00 8.5 4 Sudoeste 9 Sudoeste 0 -- -- 46
2019-03-30 22:00:00 10.2 5 Sudoeste 10 Sur 0 -- -- 42
2019-03-30 21:00:00 12.1 4 Sur 15 Sudeste 0 -- -- 36
2019-03-30 20:00:00 13.1 0 Calma 10 Norte 0 -- -- 33
2019-03-30 19:00:00 14.8 7 Nordeste 16 Este 0 -- -- 28
2019-03-30 18:00:00 16.6 12 Nordeste 19 Nordeste 0 -- -- 26
2019-03-30 17:00:00 16.9 11 Este 22 Nordeste 0 -- -- 25
2019-03-30 16:00:00 16.9 11 Nordeste 24 Nordeste 0 -- -- 26
2019-03-30 15:00:00 16.9 13 Nordeste 20 Nordeste 0 -- -- 26
2019-03-30 14:00:00 15.1 10 Nordeste 21 Nordeste 0 -- -- 29
2019-03-30 13:00:00 15.9 7 Nordeste 25 Este 0 -- -- 29
2019-03-30 12:00:00 14.9 7 Sudeste 16 Este 0 -- -- 33
2019-03-30 11:00:00 14.3 8 Este 15 Este 0 -- -- 32
2019-03-30 10:00:00 13.1 2 Este 9 Este 0 -- -- 37
2019-03-30 09:00:00 8.6 2 Este 4 Este 0 -- -- 55
2019-03-30 08:00:00 3.4 2 Sudeste 5 Sur 0 -- -- 64
2019-03-30 07:00:00 2.3 3 Sudeste 8 Sudeste 0 -- -- 66
2019-03-30 06:00:00 2.6 2 Sur 8 Sur 0 -- -- 66
2019-03-30 05:00:00 4.9 4 Sur 18 Sur 0 -- -- 61
2019-03-30 04:00:00 6.2 10 Sur 22 Sur 0 -- -- 58
2019-03-30 03:00:00 7.1 13 Sur 28 Sur 0 -- -- 56
2019-03-30 02:00:00 7.6 12 Sur 25 Sudeste 0 -- -- 52
2019-03-30 01:00:00 8.2 14 Sur 24 Sur 0 -- -- 44
2019-03-30 00:00:00 8.5 11 Sur 20 Sur 0 -- -- 42
2019-03-29 23:00:00 8.7 11 Sur 17 Sur 0 -- -- 41
2019-03-29 22:00:00 9.7 9 Sur 23 Sudeste 0 -- -- 37
2019-03-29 21:00:00 9.9 14 Sur 22 Sur 0 -- -- 34
2019-03-29 20:00:00 11.3 6 Sudeste 22 Sudeste 0 -- -- 32
2019-03-29 19:00:00 14 14 Sudeste 30 Sudeste 0 -- -- 27
2019-03-29 18:00:00 15.5 21 Sudeste 32 Sudeste 0 -- -- 25
2019-03-29 17:00:00 16.3 19 Sudeste 32 Este 0 -- -- 25
2019-03-29 16:00:00 16.7 14 Sudeste 40 Sudeste 0 -- -- 25
2019-03-29 15:00:00 16.7 16 Sudeste 34 Sudeste 0 -- -- 26
2019-03-29 14:00:00 16.4 14 Sudeste 38 Este 0 -- -- 27
2019-03-29 13:00:00 15.9 12 Sudeste 30 Sudeste 0 -- -- 27
2019-03-29 12:00:00 15.2 24 Sudeste 36 Sudeste 0 -- -- 27
2019-03-29 11:00:00 14.3 17 Sudeste 33 Sur 0 -- -- 29
2019-03-29 10:00:00 12.4 16 Sur 32 Sur 0 -- -- 35
2019-03-29 09:00:00 10.4 15 Sur 26 Sur 0 -- -- 37
2019-03-29 08:00:00 6.4 3 Sudeste 12 Sudeste 0 -- -- 45
2019-03-29 07:00:00 4.4 6 Sur 13 Sur 0 -- -- 46
2019-03-29 06:00:00 5.9 5 Sur 13 Sur 0 -- -- 42
2019-03-29 05:00:00 6.6 5 Sur 18 Sur 0 -- -- 39
2019-03-29 04:00:00 5.4 4 Sur 7 Sur 0 -- -- 39
2019-03-29 03:00:00 5.5 0 Calma 6 Sudeste 0 -- -- 40
2019-03-29 02:00:00 5.5 0 Calma 9 Sudoeste 0 -- -- 40
2019-03-29 01:00:00 5.1 6 Noroeste 12 Oeste 0 -- -- 41
2019-03-29 00:00:00 9.7 6 Sur 16 Sur 0 -- -- 31
2019-03-28 23:00:00 8.9 7 Sur 12 Sur 0 -- -- 31
2019-03-28 22:00:00 9.8 9 Sur 15 Sudoeste 0 -- -- 30
2019-03-28 21:00:00 10.3 10 Sur 15 Sur 0 -- -- 29
2019-03-28 20:00:00 12.7 7 Sur 13 Sudeste 0 -- -- 27
2019-03-28 19:00:00 15.5 6 Sudeste 22 Sudeste 0 -- -- 23
2019-03-28 18:00:00 16.9 12 Sudeste 22 Sudeste 0 -- -- 22
2019-03-28 17:00:00 17.5 13 Sudeste 26 Este 0 -- -- 20
2019-03-28 16:00:00 17.7 11 Sudeste 23 Este 0 -- -- 22
2019-03-28 15:00:00 16.9 7 Noroeste 22 Nordeste 0 -- -- 28
2019-03-28 14:00:00 15.7 9 Norte 24 Norte 0 -- -- 29
2019-03-28 13:00:00 15.4 5 Sur 17 Nordeste 0 -- -- 29
2019-03-28 12:00:00 12.7 7 Nordeste 15 Norte 0 -- -- 37
2019-03-28 11:00:00 9.4 6 Nordeste 12 Norte 0 -- -- 42
2019-03-28 10:00:00 6.1 5 Nordeste 10 Nordeste 0 -- -- 48
2019-03-28 09:00:00 3.6 7 Nordeste 10 Nordeste 0 -- -- 54
2019-03-28 08:00:00 2 2 Sudeste 5 Sudeste 0 -- -- 59
2019-03-28 07:00:00 0.6 3 Sudeste 6 Sudeste 0 -- -- 61
2019-03-28 06:00:00 0.5 2 Sur 8 Sudeste 0 -- -- 62
2019-03-28 05:00:00 1.2 8 Sudeste 9 Sudeste 0 -- -- 60
2019-03-28 04:00:00 1.9 6 Este 10 Nordeste 0 -- -- 57
2019-03-28 03:00:00 2.6 4 Este 7 Este 0 -- -- 54
2019-03-28 02:00:00 3.4 4 Este 6 Sudeste 0 -- -- 51
2019-03-28 01:00:00 3.8 5 Nordeste 9 Nordeste 0 -- -- 47
2019-03-28 00:00:00 5.6 3 Nordeste 13 Este 0 -- -- 43
2019-03-27 23:00:00 5.9 10 Este 21 Sudeste 0 -- -- 42
2019-03-27 22:00:00 7.8 4 Sudeste 13 Nordeste 0 -- -- 34
2019-03-27 21:00:00 9.1 7 Norte 19 Norte 0 -- -- 31
2019-03-27 20:00:00 12.2 15 Norte 23 Nordeste 0 -- -- 28
2019-03-27 19:00:00 15.7 13 Nordeste 19 Este 0 -- -- 21
2019-03-27 18:00:00 16.7 13 Nordeste 22 Nordeste 0 -- -- 22
2019-03-27 17:00:00 16.8 13 Nordeste 23 Nordeste 0 -- -- 20
2019-03-27 16:00:00 15.9 12 Nordeste 27 Nordeste 0 -- -- 23
2019-03-27 15:00:00 15.1 13 Nordeste 25 Norte 0 -- -- 23
2019-03-27 14:00:00 14.4 8 Nordeste 22 Nordeste 0 -- -- 26
2019-03-27 13:00:00 13.4 10 Nordeste 23 Nordeste 0 -- -- 31
2019-03-27 12:00:00 12.4 12 Norte 18 Nordeste 0 -- -- 33
2019-03-27 11:00:00 10.6 9 Nordeste 15 Nordeste 0 -- -- 40
2019-03-27 10:00:00 6.6 6 Nordeste 15 Este 0 -- -- 44
2019-03-27 09:00:00 3.7 9 Sudeste 12 Este 0 -- -- 47
2019-03-27 08:00:00 0.1 3 Sudeste 11 Sur 0 -- -- 54
2019-03-27 07:00:00 -1.7 8 Sudeste 11 Este 0 -- -- 57
2019-03-27 06:00:00 -1.2 7 Este 9 Este 0 -- -- 54
2019-03-27 05:00:00 0.3 4 Nordeste 7 Nordeste 0 -- -- 50
2019-03-27 04:00:00 0.3 0 Calma 8 Nordeste 0 -- -- 50
2019-03-27 03:00:00 1.7 3 Nordeste 9 Nordeste 0 -- -- 47
2019-03-27 02:00:00 2.2 3 Nordeste 6 Nordeste 0 -- -- 45
2019-03-27 01:00:00 3.1 6 Nordeste 10 Este 0 -- -- 43
2019-03-27 00:00:00 4.5 9 Este 17 Sudeste 0 -- -- 40